createdAt,value
2018-06-18T07:16:09.181Z,4.60
2018-06-18T07:18:37.332Z,5.10
2018-06-18T07:21:05.491Z,4.80
2018-06-18T07:23:33.631Z,5.43
2018-06-18T07:26:01.808Z,4.90
2018-06-18T07:28:29.910Z,4.97
2018-06-18T07:30:58.083Z,4.77
2018-06-18T07:33:26.216Z,5.03
2018-06-18T07:35:54.360Z,4.97
2018-06-18T07:38:22.821Z,6.97
2018-06-18T07:40:50.993Z,4.57
2018-06-18T07:43:19.129Z,4.70
2018-06-18T07:45:47.272Z,7.83
2018-06-18T07:48:15.400Z,5.27
2018-06-18T07:50:43.321Z,4.70
2018-06-18T07:53:11.456Z,4.87
2018-06-18T07:55:39.608Z,4.80
2018-06-18T07:58:07.736Z,4.60
2018-06-18T08:00:35.868Z,5.00
2018-06-18T08:03:03.783Z,4.07
2018-06-18T08:05:31.924Z,3.93
2018-06-18T08:08:00.107Z,4.40
2018-06-18T08:10:28.205Z,4.30
2018-06-18T08:12:56.343Z,4.20
2018-06-18T08:15:24.472Z,3.87
2018-06-18T08:17:52.637Z,4.00
2018-06-18T08:20:20.771Z,3.70
2018-06-18T08:22:49.760Z,4.07
2018-06-18T08:25:17.908Z,4.10
2018-06-18T08:27:46.081Z,3.87
2018-06-18T08:30:14.204Z,3.77
2018-06-18T08:32:42.344Z,4.57
2018-06-18T08:35:10.260Z,3.60
2018-06-18T08:37:38.400Z,4.13
2018-06-18T08:40:06.612Z,3.70
2018-06-18T08:42:34.743Z,4.17
2018-06-18T08:45:02.890Z,3.70
2018-06-18T08:47:31.018Z,3.80
2018-06-18T08:50:04.717Z,3.30
2018-06-18T08:52:38.477Z,3.67
2018-06-18T08:55:12.000Z,3.67
2018-06-18T08:57:45.755Z,3.50
2018-06-18T09:01:22.964Z,3.90
2018-06-18T09:03:58.340Z,3.53
2018-06-18T09:06:26.491Z,3.37
2018-06-18T09:08:56.220Z,3.20
2018-06-18T09:11:24.409Z,3.80
2018-06-18T09:13:52.772Z,3.80
2018-06-18T09:16:20.692Z,3.90
2018-06-18T09:18:48.858Z,4.00
2018-06-18T09:21:16.999Z,3.47
2018-06-18T09:23:45.196Z,3.40
2018-06-18T09:26:13.324Z,3.60
2018-06-18T09:28:41.437Z,3.33
2018-06-18T09:31:09.617Z,3.20
2018-06-18T09:33:37.793Z,3.30
2018-06-18T09:36:05.929Z,3.10
2018-06-18T09:38:34.072Z,3.27
2018-06-18T09:41:02.318Z,3.90
2018-06-18T09:43:30.452Z,3.43
2018-06-18T09:45:58.362Z,3.50
2018-06-18T09:48:31.813Z,3.20
2018-06-18T09:51:05.568Z,3.63
2018-06-18T09:53:39.272Z,5.17
2018-06-18T09:56:12.958Z,3.73
2018-06-18T09:58:47.452Z,3.40
2018-06-18T10:01:20.889Z,3.77
2018-06-18T10:03:49.204Z,3.40
2018-06-18T10:06:17.581Z,3.60
2018-06-18T10:08:46.341Z,3.40
2018-06-18T10:11:14.484Z,3.80
2018-06-18T10:13:42.383Z,4.30
2018-06-18T10:16:10.527Z,3.47
2018-06-18T10:18:38.474Z,3.97
2018-06-18T10:21:06.784Z,3.50
2018-06-18T10:23:34.942Z,3.43
2018-06-18T10:26:02.845Z,4.27
2018-06-18T10:28:30.987Z,3.57
2018-06-18T10:30:58.909Z,3.10
2018-06-18T10:33:32.476Z,3.90
2018-06-18T10:36:06.137Z,4.27
2018-06-18T10:38:40.365Z,3.10
2018-06-18T10:41:14.039Z,3.40
2018-06-18T10:43:42.180Z,3.53
2018-06-18T10:46:10.324Z,3.40
2018-06-18T10:48:38.802Z,3.20
2018-06-18T10:51:06.964Z,2.77
2018-06-18T10:53:35.100Z,3.47
2018-06-18T10:56:03.241Z,2.83
2018-06-18T10:58:31.381Z,3.40
2018-06-18T11:01:04.668Z,3.33
2018-06-18T11:03:32.820Z,2.80
2018-06-18T11:06:06.453Z,3.30
2018-06-18T11:08:35.528Z,3.13
2018-06-18T11:11:03.666Z,3.10
2018-06-18T11:13:31.807Z,3.03
2018-06-18T11:15:59.975Z,3.43
2018-06-18T11:18:33.504Z,3.30
2018-06-18T11:21:06.881Z,3.10
2018-06-18T11:23:40.288Z,3.47
2018-06-18T11:26:13.928Z,3.10
2018-06-18T11:28:42.699Z,3.13
2018-06-18T11:31:10.877Z,3.30
2018-06-18T11:33:39.131Z,3.10
2018-06-18T11:36:07.278Z,3.20
2018-06-18T11:38:35.428Z,3.60
2018-06-18T11:41:03.602Z,3.43
2018-06-18T11:43:31.834Z,3.50
2018-06-18T11:45:59.924Z,3.40
2018-06-18T11:48:27.831Z,2.80
2018-06-18T11:50:55.984Z,3.30
2018-06-18T11:53:24.120Z,3.33
2018-06-18T11:55:52.621Z,3.43
2018-06-18T11:58:26.179Z,3.23
2018-06-18T12:02:01.643Z,2.80
2018-06-18T12:04:35.302Z,3.03
2018-06-18T12:07:09.162Z,3.13
2018-06-18T12:09:39.524Z,2.87
2018-06-18T12:12:07.648Z,3.40
2018-06-18T12:14:35.796Z,3.43
2018-06-18T12:17:04.677Z,2.97
2018-06-18T12:19:32.825Z,3.30
2018-06-18T12:22:00.723Z,3.00
2018-06-18T12:24:28.887Z,3.30
2018-06-18T12:26:57.057Z,3.07
2018-06-18T12:29:25.210Z,3.43
2018-06-18T12:31:53.112Z,3.57
2018-06-18T12:34:21.264Z,3.33
2018-06-18T12:36:49.401Z,3.13
2018-06-18T12:39:17.556Z,3.20
2018-06-18T12:41:49.416Z,3.10
2018-06-18T12:44:18.459Z,3.17
2018-06-18T12:46:53.378Z,3.30
2018-06-18T12:49:27.859Z,3.40
2018-06-18T12:52:01.505Z,3.60
2018-06-18T12:54:34.902Z,3.20
2018-06-18T12:57:05.768Z,3.10
2018-06-18T12:59:33.953Z,3.50
2018-06-18T13:02:06.780Z,3.10
2018-06-18T13:04:38.041Z,3.90
2018-06-18T13:07:06.688Z,3.50
2018-06-18T13:09:34.836Z,3.60
2018-06-18T13:12:02.973Z,3.87
2018-06-18T13:14:31.124Z,4.40
2018-06-18T13:16:59.276Z,3.63
2018-06-18T13:19:27.424Z,3.37
2018-06-18T13:21:55.617Z,3.03
2018-06-18T13:24:23.756Z,3.70
2018-06-18T13:26:51.676Z,3.00
2018-06-18T13:29:19.825Z,3.27
2018-06-18T13:31:47.963Z,2.90
2018-06-18T13:34:16.108Z,3.60
2018-06-18T13:36:44.241Z,3.57
2018-06-18T13:39:17.988Z,3.60
2018-06-18T13:41:51.344Z,3.10
2018-06-18T13:44:25.078Z,3.37
2018-06-18T13:46:58.776Z,3.80
2018-06-18T13:49:32.428Z,3.40
2018-06-18T13:52:00.568Z,2.83
2018-06-18T13:54:29.744Z,3.07
2018-06-18T13:56:57.980Z,3.00
2018-06-18T13:59:26.132Z,3.20
2018-06-18T14:01:54.264Z,3.40
2018-06-18T14:04:22.400Z,3.13
2018-06-18T14:06:50.561Z,3.23
2018-06-18T14:09:18.696Z,3.20
2018-06-18T14:11:46.841Z,3.70
2018-06-18T14:14:14.985Z,3.10
2018-06-18T14:16:43.124Z,3.20
2018-06-18T14:19:16.633Z,3.30
2018-06-18T14:21:44.789Z,3.50
2018-06-18T14:24:12.924Z,3.53
2018-06-18T14:26:40.930Z,3.40
2018-06-18T14:29:13.340Z,3.40
2018-06-18T14:31:59.872Z,3.00
2018-06-18T14:34:33.400Z,3.50
2018-06-18T14:38:10.680Z,3.70
2018-06-18T14:40:38.836Z,3.60
2018-06-18T14:43:06.993Z,3.30
2018-06-18T14:45:35.142Z,3.37
2018-06-18T14:48:03.268Z,3.60
2018-06-18T14:50:31.435Z,3.00
2018-06-18T14:52:59.564Z,3.23
2018-06-18T14:55:27.775Z,3.00
2018-06-18T14:57:57.001Z,3.17
2018-06-18T15:00:28.771Z,2.77
2018-06-18T15:02:58.364Z,3.37
2018-06-18T15:05:31.878Z,3.00
2018-06-18T15:08:00.014Z,3.47
2018-06-18T15:10:33.571Z,3.80
2018-06-18T15:13:02.000Z,3.03
2018-06-18T15:15:35.629Z,3.00
2018-06-18T15:18:03.747Z,3.37
2018-06-18T15:20:31.914Z,3.40
2018-06-18T15:23:02.117Z,3.90
2018-06-18T15:25:42.244Z,3.77
2018-06-18T15:28:10.861Z,4.57
2018-06-18T15:30:39.040Z,5.17
2018-06-18T15:33:07.196Z,3.80
2018-06-18T15:35:35.441Z,4.20
2018-06-18T15:38:03.605Z,3.57
2018-06-18T15:40:31.832Z,3.90
2018-06-18T15:43:00.076Z,3.83
2018-06-18T15:45:28.220Z,3.57
2018-06-18T15:47:56.368Z,3.50
2018-06-18T15:50:24.527Z,3.27
2018-06-18T15:52:52.520Z,3.23
2018-06-18T15:55:20.685Z,3.53
2018-06-18T15:57:48.829Z,3.77
2018-06-18T16:00:16.787Z,3.60
2018-06-18T16:02:44.945Z,3.03
2018-06-18T16:05:13.364Z,3.70
2018-06-18T16:07:42.225Z,3.40
2018-06-18T16:10:10.373Z,3.80
2018-06-18T16:12:38.623Z,4.03
2018-06-18T16:15:06.928Z,3.50
2018-06-18T16:17:35.084Z,3.30
2018-06-18T16:20:03.225Z,3.47
2018-06-18T16:22:31.142Z,3.80
2018-06-18T16:24:59.532Z,3.80
2018-06-18T16:27:27.620Z,4.37
2018-06-18T16:29:55.764Z,3.97
2018-06-18T16:32:23.928Z,4.37
2018-06-18T16:34:52.264Z,3.53
2018-06-18T16:37:20.296Z,3.80
2018-06-18T16:39:48.451Z,3.33
2018-06-18T16:42:16.599Z,3.37
2018-06-18T16:44:44.801Z,3.67
2018-06-18T16:47:12.940Z,3.50
2018-06-18T16:49:41.159Z,3.73
2018-06-18T16:52:09.322Z,3.50
2018-06-18T16:54:37.490Z,3.00
2018-06-18T16:57:05.632Z,4.10
2018-06-18T16:59:34.252Z,4.00
2018-06-18T17:02:02.387Z,3.30
2018-06-18T17:04:30.618Z,2.90
2018-06-18T17:06:58.740Z,3.03
2018-06-18T17:09:26.816Z,3.90
2018-06-18T17:11:54.959Z,3.33
2018-06-18T17:14:23.125Z,3.37
2018-06-18T17:16:51.284Z,3.00
2018-06-18T17:19:19.436Z,7.13
2018-06-18T17:21:47.597Z,3.63
2018-06-18T17:24:16.292Z,4.37
2018-06-18T17:26:44.448Z,4.30
2018-06-18T17:29:12.355Z,4.50
2018-06-18T17:31:40.582Z,4.93
2018-06-18T17:34:08.711Z,5.13
2018-06-18T17:36:36.874Z,4.73
2018-06-18T17:39:08.140Z,5.03
2018-06-18T17:41:36.286Z,5.43
2018-06-18T17:44:04.446Z,4.50
2018-06-18T17:46:32.361Z,3.17
2018-06-18T17:49:00.522Z,3.63
2018-06-18T17:51:28.664Z,3.90
2018-06-18T17:53:56.874Z,3.47
2018-06-18T17:56:24.749Z,4.10
2018-06-18T17:58:52.884Z,3.50
2018-06-18T18:01:21.078Z,3.90
2018-06-18T18:03:49.180Z,3.47
2018-06-18T18:06:17.328Z,3.77
2018-06-18T18:08:45.877Z,3.73
2018-06-18T18:11:14.064Z,3.20
2018-06-18T18:13:42.237Z,3.50
2018-06-18T18:16:10.337Z,4.23
2018-06-18T18:18:38.477Z,4.07
2018-06-18T18:21:06.459Z,4.33
2018-06-18T18:23:34.817Z,6.03
2018-06-18T18:26:02.982Z,4.33
2018-06-18T18:28:31.272Z,4.10
2018-06-18T18:30:59.425Z,4.27
2018-06-18T18:33:27.586Z,4.37
2018-06-18T18:35:55.779Z,7.33
2018-06-18T18:38:23.920Z,3.80
2018-06-18T18:40:52.100Z,3.70
2018-06-18T18:43:20.256Z,5.63
2018-06-18T18:45:48.418Z,5.50
2018-06-18T18:48:16.605Z,16.50
2018-06-18T18:50:44.760Z,8.80
2018-06-18T18:53:13.262Z,10.50
2018-06-18T18:56:01.999Z,16.13
2018-06-18T18:58:56.364Z,9.30
2018-06-18T19:01:24.529Z,6.10
2018-06-18T19:03:54.630Z,8.50
2018-06-18T19:06:22.801Z,11.77
2018-06-18T19:08:50.949Z,10.67
2018-06-18T19:11:19.115Z,13.97
2018-06-18T19:13:47.285Z,18.87
2018-06-18T19:16:16.148Z,8.40
2018-06-18T19:18:48.388Z,12.00
2018-06-18T19:21:16.551Z,7.20
2018-06-18T19:23:44.700Z,23.87
2018-06-18T19:26:12.865Z,51.37
2018-06-18T19:28:41.004Z,17.77
2018-06-18T19:31:11.659Z,18.13
2018-06-18T19:33:42.165Z,23.70
2018-06-18T19:36:10.334Z,35.93
2018-06-18T19:38:38.644Z,121.00
2018-06-18T19:41:06.581Z,77.90
2018-06-18T19:43:34.752Z,141.67
2018-06-18T19:46:03.682Z,17.43
2018-06-18T19:48:37.119Z,39.33
2018-06-18T19:51:05.336Z,73.13
2018-06-18T19:53:33.483Z,26.17
2018-06-18T19:56:01.670Z,109.83
2018-06-18T19:58:29.820Z,17.60
2018-06-18T20:01:01.104Z,6.27
2018-06-18T20:03:29.248Z,38.77
2018-06-18T20:05:57.544Z,32.60
2018-06-18T20:08:27.775Z,39.77
2018-06-18T20:10:55.941Z,35.93
2018-06-18T20:13:24.130Z,15.87
2018-06-18T20:15:52.310Z,10.30
2018-06-18T20:18:20.468Z,29.83
2018-06-18T20:20:48.616Z,30.63
2018-06-18T20:23:19.825Z,19.83
2018-06-18T20:25:50.278Z,53.17
2018-06-18T20:28:18.423Z,17.10
2018-06-18T20:30:46.339Z,7.53
2018-06-18T20:33:16.404Z,73.47
2018-06-18T20:35:50.048Z,97.33
2018-06-18T20:38:18.206Z,95.93
2018-06-18T20:40:46.357Z,76.57
2018-06-18T20:43:14.363Z,96.53
2018-06-18T20:45:42.504Z,62.87
2018-06-18T20:48:10.424Z,73.20
2018-06-18T20:50:38.591Z,72.97
2018-06-18T20:53:06.479Z,42.20
2018-06-18T20:55:34.622Z,94.10
2018-06-18T20:58:02.772Z,39.97
2018-06-18T21:00:30.679Z,54.37
2018-06-18T21:02:59.150Z,57.10
2018-06-18T21:05:27.305Z,57.73
2018-06-18T21:07:55.530Z,10.40
2018-06-18T21:10:23.372Z,12.50
2018-06-18T21:12:51.534Z,26.77
2018-06-18T21:15:19.748Z,36.73
2018-06-18T21:17:47.927Z,15.77
2018-06-18T21:20:16.109Z,21.30
2018-06-18T21:22:44.313Z,12.73
2018-06-18T21:25:12.283Z,12.13
2018-06-18T21:27:40.195Z,14.10
2018-06-18T21:30:08.580Z,8.10
2018-06-18T21:32:36.729Z,12.30
2018-06-18T21:35:04.882Z,11.77
2018-06-18T21:37:32.779Z,10.83
